sensor_id;sensor_type;location;lat;lon;timestamp;P1;durP1;ratioP1;P2;durP2;ratioP2
72524;SDS011;60547;48.502;8.996;2022-08-19T00:01:21;14.07;;;10.32;;
72524;SDS011;60547;48.502;8.996;2022-08-19T00:03:47;14.63;;;10.35;;
72524;SDS011;60547;48.502;8.996;2022-08-19T00:06:13;15.10;;;11.10;;
72524;SDS011;60547;48.502;8.996;2022-08-19T00:08:39;13.68;;;10.60;;
72524;SDS011;60547;48.502;8.996;2022-08-19T00:11:04;14.68;;;10.52;;
72524;SDS011;60547;48.502;8.996;2022-08-19T00:13:30;13.38;;;10.23;;
72524;SDS011;60547;48.502;8.996;2022-08-19T00:15:56;14.25;;;10.73;;
72524;SDS011;60547;48.502;8.996;2022-08-19T00:18:23;14.75;;;10.55;;
72524;SDS011;60547;48.502;8.996;2022-08-19T00:20:49;14.43;;;10.68;;
72524;SDS011;60547;48.502;8.996;2022-08-19T00:23:14;17.17;;;11.82;;
72524;SDS011;60547;48.502;8.996;2022-08-19T00:25:40;17.23;;;11.70;;
72524;SDS011;60547;48.502;8.996;2022-08-19T00:28:06;14.93;;;11.70;;
72524;SDS011;60547;48.502;8.996;2022-08-19T00:30:31;15.65;;;11.80;;
72524;SDS011;60547;48.502;8.996;2022-08-19T00:32:57;17.80;;;12.35;;
72524;SDS011;60547;48.502;8.996;2022-08-19T00:35:23;17.52;;;12.07;;
72524;SDS011;60547;48.502;8.996;2022-08-19T00:37:49;20.25;;;12.23;;
72524;SDS011;60547;48.502;8.996;2022-08-19T00:40:15;17.35;;;12.20;;
72524;SDS011;60547;48.502;8.996;2022-08-19T00:42:43;17.80;;;12.25;;
72524;SDS011;60547;48.502;8.996;2022-08-19T00:45:28;16.67;;;11.95;;
72524;SDS011;60547;48.502;8.996;2022-08-19T00:47:56;18.88;;;12.38;;
72524;SDS011;60547;48.502;8.996;2022-08-19T00:50:22;16.02;;;11.55;;
72524;SDS011;60547;48.502;8.996;2022-08-19T00:52:48;17.00;;;11.25;;
72524;SDS011;60547;48.502;8.996;2022-08-19T00:55:17;18.10;;;12.02;;
72524;SDS011;60547;48.502;8.996;2022-08-19T00:57:46;19.02;;;12.43;;
72524;SDS011;60547;48.502;8.996;2022-08-19T01:00:17;16.67;;;11.50;;
72524;SDS011;60547;48.502;8.996;2022-08-19T01:02:44;19.15;;;12.13;;
72524;SDS011;60547;48.502;8.996;2022-08-19T01:05:12;19.00;;;12.52;;
72524;SDS011;60547;48.502;8.996;2022-08-19T01:07:41;18.83;;;12.40;;
72524;SDS011;60547;48.502;8.996;2022-08-19T01:10:09;17.02;;;12.10;;
72524;SDS011;60547;48.502;8.996;2022-08-19T01:12:39;20.70;;;12.13;;
72524;SDS011;60547;48.502;8.996;2022-08-19T01:15:07;19.88;;;13.10;;
72524;SDS011;60547;48.502;8.996;2022-08-19T01:17:35;18.30;;;12.23;;
72524;SDS011;60547;48.502;8.996;2022-08-19T01:20:03;20.83;;;12.73;;
72524;SDS011;60547;48.502;8.996;2022-08-19T01:22:31;19.48;;;12.88;;
72524;SDS011;60547;48.502;8.996;2022-08-19T01:25:04;19.98;;;12.95;;
72524;SDS011;60547;48.502;8.996;2022-08-19T01:27:40;19.00;;;12.68;;
72524;SDS011;60547;48.502;8.996;2022-08-19T01:30:09;20.13;;;13.45;;
72524;SDS011;60547;48.502;8.996;2022-08-19T01:32:38;22.80;;;14.27;;
72524;SDS011;60547;48.502;8.996;2022-08-19T01:35:04;19.52;;;12.90;;
72524;SDS011;60547;48.502;8.996;2022-08-19T01:37:29;18.70;;;13.20;;
72524;SDS011;60547;48.502;8.996;2022-08-19T01:39:55;22.27;;;14.48;;
72524;SDS011;60547;48.502;8.996;2022-08-19T01:42:21;21.80;;;13.63;;
72524;SDS011;60547;48.502;8.996;2022-08-19T01:44:47;20.42;;;13.57;;
72524;SDS011;60547;48.502;8.996;2022-08-19T01:47:12;22.17;;;13.52;;
72524;SDS011;60547;48.502;8.996;2022-08-19T01:49:38;21.40;;;13.18;;
72524;SDS011;60547;48.502;8.996;2022-08-19T01:52:04;21.50;;;13.60;;
72524;SDS011;60547;48.502;8.996;2022-08-19T01:54:30;20.40;;;13.57;;
72524;SDS011;60547;48.502;8.996;2022-08-19T01:56:58;21.00;;;13.43;;
72524;SDS011;60547;48.502;8.996;2022-08-19T01:59:30;21.13;;;13.68;;
72524;SDS011;60547;48.502;8.996;2022-08-19T02:01:57;21.60;;;14.25;;
72524;SDS011;60547;48.502;8.996;2022-08-19T02:04:22;20.85;;;14.63;;
72524;SDS011;60547;48.502;8.996;2022-08-19T02:06:48;22.50;;;14.23;;
72524;SDS011;60547;48.502;8.996;2022-08-19T02:09:14;20.05;;;14.15;;
72524;SDS011;60547;48.502;8.996;2022-08-19T02:11:39;24.88;;;14.52;;
72524;SDS011;60547;48.502;8.996;2022-08-19T02:14:07;20.70;;;14.05;;
72524;SDS011;60547;48.502;8.996;2022-08-19T02:16:33;22.92;;;13.80;;
72524;SDS011;60547;48.502;8.996;2022-08-19T02:18:58;23.92;;;13.80;;
72524;SDS011;60547;48.502;8.996;2022-08-19T02:21:25;24.30;;;14.32;;
72524;SDS011;60547;48.502;8.996;2022-08-19T02:23:52;21.33;;;14.43;;
72524;SDS011;60547;48.502;8.996;2022-08-19T02:26:17;22.40;;;13.05;;
72524;SDS011;60547;48.502;8.996;2022-08-19T02:28:44;20.73;;;13.52;;
72524;SDS011;60547;48.502;8.996;2022-08-19T02:31:10;23.65;;;14.80;;
72524;SDS011;60547;48.502;8.996;2022-08-19T02:33:36;22.85;;;13.82;;
72524;SDS011;60547;48.502;8.996;2022-08-19T02:36:06;22.10;;;13.27;;
72524;SDS011;60547;48.502;8.996;2022-08-19T02:38:32;23.08;;;13.93;;
72524;SDS011;60547;48.502;8.996;2022-08-19T02:40:59;21.17;;;12.95;;
72524;SDS011;60547;48.502;8.996;2022-08-19T02:43:27;23.95;;;13.75;;
72524;SDS011;60547;48.502;8.996;2022-08-19T02:45:55;22.05;;;13.48;;
72524;SDS011;60547;48.502;8.996;2022-08-19T02:48:22;23.33;;;13.57;;
72524;SDS011;60547;48.502;8.996;2022-08-19T02:50:49;24.08;;;14.65;;
72524;SDS011;60547;48.502;8.996;2022-08-19T02:53:23;23.33;;;13.80;;
72524;SDS011;60547;48.502;8.996;2022-08-19T02:55:52;23.33;;;14.20;;
72524;SDS011;60547;48.502;8.996;2022-08-19T02:58:18;23.00;;;14.63;;
72524;SDS011;60547;48.502;8.996;2022-08-19T03:00:45;22.70;;;14.68;;
72524;SDS011;60547;48.502;8.996;2022-08-19T03:03:14;25.20;;;14.98;;
72524;SDS011;60547;48.502;8.996;2022-08-19T03:05:40;24.90;;;14.73;;
72524;SDS011;60547;48.502;8.996;2022-08-19T03:08:06;24.95;;;14.52;;
72524;SDS011;60547;48.502;8.996;2022-08-19T03:10:32;24.90;;;14.55;;
72524;SDS011;60547;48.502;8.996;2022-08-19T03:12:58;23.80;;;14.80;;
72524;SDS011;60547;48.502;8.996;2022-08-19T03:15:24;23.00;;;13.90;;
72524;SDS011;60547;48.502;8.996;2022-08-19T03:17:49;26.70;;;14.88;;
72524;SDS011;60547;48.502;8.996;2022-08-19T03:20:14;23.83;;;14.20;;
72524;SDS011;60547;48.502;8.996;2022-08-19T03:22:40;23.33;;;13.95;;
72524;SDS011;60547;48.502;8.996;2022-08-19T03:25:05;23.27;;;14.30;;
72524;SDS011;60547;48.502;8.996;2022-08-19T03:27:31;24.50;;;14.70;;
72524;SDS011;60547;48.502;8.996;2022-08-19T03:29:56;24.27;;;14.75;;
72524;SDS011;60547;48.502;8.996;2022-08-19T03:32:22;25.65;;;14.35;;
72524;SDS011;60547;48.502;8.996;2022-08-19T03:34:47;23.75;;;13.05;;
72524;SDS011;60547;48.502;8.996;2022-08-19T03:37:13;24.90;;;14.82;;
72524;SDS011;60547;48.502;8.996;2022-08-19T03:39:39;23.83;;;14.15;;
72524;SDS011;60547;48.502;8.996;2022-08-19T03:42:05;25.95;;;14.25;;
72524;SDS011;60547;48.502;8.996;2022-08-19T03:44:31;24.98;;;15.43;;
72524;SDS011;60547;48.502;8.996;2022-08-19T03:49:27;23.65;;;13.68;;
72524;SDS011;60547;48.502;8.996;2022-08-19T03:51:55;24.58;;;14.25;;
72524;SDS011;60547;48.502;8.996;2022-08-19T03:54:23;22.45;;;13.75;;
72524;SDS011;60547;48.502;8.996;2022-08-19T03:56:51;24.98;;;14.50;;
72524;SDS011;60547;48.502;8.996;2022-08-19T03:59:20;28.73;;;15.93;;
72524;SDS011;60547;48.502;8.996;2022-08-19T04:01:50;23.60;;;14.90;;
72524;SDS011;60547;48.502;8.996;2022-08-19T04:04:15;24.55;;;15.18;;
72524;SDS011;60547;48.502;8.996;2022-08-19T04:06:41;24.67;;;14.57;;
72524;SDS011;60547;48.502;8.996;2022-08-19T04:09:08;24.38;;;14.82;;
72524;SDS011;60547;48.502;8.996;2022-08-19T04:11:46;25.42;;;14.95;;
72524;SDS011;60547;48.502;8.996;2022-08-19T04:14:14;24.48;;;14.63;;
72524;SDS011;60547;48.502;8.996;2022-08-19T04:16:45;26.63;;;15.00;;
72524;SDS011;60547;48.502;8.996;2022-08-19T04:19:11;24.83;;;14.38;;
72524;SDS011;60547;48.502;8.996;2022-08-19T04:21:38;24.60;;;14.00;;
72524;SDS011;60547;48.502;8.996;2022-08-19T04:24:04;26.83;;;14.77;;
72524;SDS011;60547;48.502;8.996;2022-08-19T04:26:32;26.23;;;15.52;;
72524;SDS011;60547;48.502;8.996;2022-08-19T04:29:00;25.35;;;15.43;;
72524;SDS011;60547;48.502;8.996;2022-08-19T04:31:29;24.98;;;14.35;;
72524;SDS011;60547;48.502;8.996;2022-08-19T04:33:57;26.67;;;14.82;;
72524;SDS011;60547;48.502;8.996;2022-08-19T04:36:26;25.00;;;14.82;;
72524;SDS011;60547;48.502;8.996;2022-08-19T04:38:54;22.98;;;14.50;;
72524;SDS011;60547;48.502;8.996;2022-08-19T04:41:21;25.98;;;15.02;;
72524;SDS011;60547;48.502;8.996;2022-08-19T04:44:05;25.23;;;15.63;;
72524;SDS011;60547;48.502;8.996;2022-08-19T04:46:31;25.33;;;16.00;;
72524;SDS011;60547;48.502;8.996;2022-08-19T04:48:57;24.20;;;15.57;;
72524;SDS011;60547;48.502;8.996;2022-08-19T04:51:23;25.17;;;15.50;;
72524;SDS011;60547;48.502;8.996;2022-08-19T04:53:49;26.05;;;15.57;;
72524;SDS011;60547;48.502;8.996;2022-08-19T04:56:16;25.33;;;15.57;;
72524;SDS011;60547;48.502;8.996;2022-08-19T04:58:44;26.58;;;15.95;;
72524;SDS011;60547;48.502;8.996;2022-08-19T05:01:13;27.17;;;16.15;;
72524;SDS011;60547;48.502;8.996;2022-08-19T05:03:42;26.15;;;15.82;;
72524;SDS011;60547;48.502;8.996;2022-08-19T05:06:09;27.40;;;16.38;;
72524;SDS011;60547;48.502;8.996;2022-08-19T05:08:38;27.70;;;16.35;;
72524;SDS011;60547;48.502;8.996;2022-08-19T05:11:12;29.20;;;16.58;;
72524;SDS011;60547;48.502;8.996;2022-08-19T05:13:42;22.75;;;15.00;;
72524;SDS011;60547;48.502;8.996;2022-08-19T05:16:11;29.92;;;17.17;;
72524;SDS011;60547;48.502;8.996;2022-08-19T05:18:38;28.83;;;16.30;;
72524;SDS011;60547;48.502;8.996;2022-08-19T05:21:24;30.52;;;17.42;;
72524;SDS011;60547;48.502;8.996;2022-08-19T05:24:08;30.13;;;17.13;;
72524;SDS011;60547;48.502;8.996;2022-08-19T05:26:37;28.50;;;17.17;;
72524;SDS011;60547;48.502;8.996;2022-08-19T05:29:03;28.20;;;17.05;;
72524;SDS011;60547;48.502;8.996;2022-08-19T05:31:30;25.58;;;15.82;;
72524;SDS011;60547;48.502;8.996;2022-08-19T05:33:56;29.42;;;16.30;;
72524;SDS011;60547;48.502;8.996;2022-08-19T05:36:26;29.58;;;17.95;;
72524;SDS011;60547;48.502;8.996;2022-08-19T05:38:53;27.02;;;15.88;;
72524;SDS011;60547;48.502;8.996;2022-08-19T05:41:20;27.23;;;16.40;;
72524;SDS011;60547;48.502;8.996;2022-08-19T05:43:54;27.90;;;16.95;;
72524;SDS011;60547;48.502;8.996;2022-08-19T05:46:25;29.20;;;17.85;;
72524;SDS011;60547;48.502;8.996;2022-08-19T05:48:51;27.83;;;16.25;;
72524;SDS011;60547;48.502;8.996;2022-08-19T05:51:16;29.15;;;16.88;;
72524;SDS011;60547;48.502;8.996;2022-08-19T05:53:42;29.48;;;18.15;;
72524;SDS011;60547;48.502;8.996;2022-08-19T05:56:15;28.20;;;16.58;;
72524;SDS011;60547;48.502;8.996;2022-08-19T05:58:41;28.80;;;17.92;;
72524;SDS011;60547;48.502;8.996;2022-08-19T06:01:10;28.08;;;16.58;;
72524;SDS011;60547;48.502;8.996;2022-08-19T06:03:40;29.40;;;17.00;;
72524;SDS011;60547;48.502;8.996;2022-08-19T06:06:06;28.90;;;17.60;;
72524;SDS011;60547;48.502;8.996;2022-08-19T06:08:34;27.25;;;16.95;;
72524;SDS011;60547;48.502;8.996;2022-08-19T06:11:14;28.88;;;16.88;;
72524;SDS011;60547;48.502;8.996;2022-08-19T06:13:46;30.25;;;16.50;;
72524;SDS011;60547;48.502;8.996;2022-08-19T06:18:48;29.15;;;17.40;;
72524;SDS011;60547;48.502;8.996;2022-08-19T06:21:16;27.13;;;17.33;;
72524;SDS011;60547;48.502;8.996;2022-08-19T06:23:42;30.83;;;17.63;;
72524;SDS011;60547;48.502;8.996;2022-08-19T06:26:11;28.05;;;16.20;;
72524;SDS011;60547;48.502;8.996;2022-08-19T06:28:37;29.48;;;17.65;;
72524;SDS011;60547;48.502;8.996;2022-08-19T06:33:33;29.88;;;16.75;;
72524;SDS011;60547;48.502;8.996;2022-08-19T06:35:58;25.92;;;15.75;;
72524;SDS011;60547;48.502;8.996;2022-08-19T06:38:24;30.80;;;18.52;;
72524;SDS011;60547;48.502;8.996;2022-08-19T06:40:49;28.42;;;16.65;;
72524;SDS011;60547;48.502;8.996;2022-08-19T06:43:15;27.15;;;16.23;;
72524;SDS011;60547;48.502;8.996;2022-08-19T06:45:40;29.30;;;16.35;;
72524;SDS011;60547;48.502;8.996;2022-08-19T06:48:06;31.02;;;17.88;;
72524;SDS011;60547;48.502;8.996;2022-08-19T06:50:32;29.92;;;17.20;;
72524;SDS011;60547;48.502;8.996;2022-08-19T06:52:57;28.30;;;17.23;;
72524;SDS011;60547;48.502;8.996;2022-08-19T06:55:23;28.95;;;17.45;;
72524;SDS011;60547;48.502;8.996;2022-08-19T06:57:48;30.17;;;18.00;;
72524;SDS011;60547;48.502;8.996;2022-08-19T07:00:15;27.00;;;16.98;;
72524;SDS011;60547;48.502;8.996;2022-08-19T07:02:41;27.85;;;17.15;;
72524;SDS011;60547;48.502;8.996;2022-08-19T07:05:08;27.77;;;17.52;;
72524;SDS011;60547;48.502;8.996;2022-08-19T07:07:34;30.98;;;18.05;;
72524;SDS011;60547;48.502;8.996;2022-08-19T07:09:59;28.33;;;17.85;;
72524;SDS011;60547;48.502;8.996;2022-08-19T07:12:25;28.08;;;17.13;;
72524;SDS011;60547;48.502;8.996;2022-08-19T07:14:53;28.23;;;17.20;;
72524;SDS011;60547;48.502;8.996;2022-08-19T07:17:18;28.10;;;16.15;;
72524;SDS011;60547;48.502;8.996;2022-08-19T07:19:45;27.92;;;17.08;;
72524;SDS011;60547;48.502;8.996;2022-08-19T07:22:10;27.88;;;17.08;;
72524;SDS011;60547;48.502;8.996;2022-08-19T07:24:36;27.35;;;17.48;;
72524;SDS011;60547;48.502;8.996;2022-08-19T07:27:04;27.85;;;17.45;;
72524;SDS011;60547;48.502;8.996;2022-08-19T07:29:32;29.92;;;16.88;;
72524;SDS011;60547;48.502;8.996;2022-08-19T07:31:59;29.63;;;17.90;;
72524;SDS011;60547;48.502;8.996;2022-08-19T07:34:26;29.83;;;18.45;;
72524;SDS011;60547;48.502;8.996;2022-08-19T07:36:53;29.33;;;18.10;;
72524;SDS011;60547;48.502;8.996;2022-08-19T07:39:21;30.13;;;18.80;;
72524;SDS011;60547;48.502;8.996;2022-08-19T07:41:48;34.13;;;20.17;;
72524;SDS011;60547;48.502;8.996;2022-08-19T07:44:16;32.72;;;18.95;;
72524;SDS011;60547;48.502;8.996;2022-08-19T07:46:44;31.08;;;18.17;;
72524;SDS011;60547;48.502;8.996;2022-08-19T07:49:11;30.95;;;18.35;;
72524;SDS011;60547;48.502;8.996;2022-08-19T07:51:43;30.85;;;19.55;;
72524;SDS011;60547;48.502;8.996;2022-08-19T07:54:10;29.55;;;18.83;;
72524;SDS011;60547;48.502;8.996;2022-08-19T07:56:36;28.70;;;18.05;;
72524;SDS011;60547;48.502;8.996;2022-08-19T07:59:02;31.25;;;18.67;;
72524;SDS011;60547;48.502;8.996;2022-08-19T08:01:28;29.17;;;17.42;;
72524;SDS011;60547;48.502;8.996;2022-08-19T08:03:54;29.38;;;18.23;;
72524;SDS011;60547;48.502;8.996;2022-08-19T08:06:39;25.35;;;17.98;;
72524;SDS011;60547;48.502;8.996;2022-08-19T08:09:24;27.58;;;17.65;;
72524;SDS011;60547;48.502;8.996;2022-08-19T08:12:00;29.77;;;17.73;;
72524;SDS011;60547;48.502;8.996;2022-08-19T08:17:00;27.73;;;16.77;;
72524;SDS011;60547;48.502;8.996;2022-08-19T08:19:26;27.25;;;17.33;;
72524;SDS011;60547;48.502;8.996;2022-08-19T08:21:53;30.15;;;17.85;;
72524;SDS011;60547;48.502;8.996;2022-08-19T08:24:20;26.38;;;17.90;;
72524;SDS011;60547;48.502;8.996;2022-08-19T08:26:46;28.55;;;18.38;;
72524;SDS011;60547;48.502;8.996;2022-08-19T08:29:12;29.40;;;18.27;;
72524;SDS011;60547;48.502;8.996;2022-08-19T08:31:39;26.90;;;17.00;;
72524;SDS011;60547;48.502;8.996;2022-08-19T08:34:05;24.40;;;16.95;;
72524;SDS011;60547;48.502;8.996;2022-08-19T08:36:32;24.85;;;15.93;;
72524;SDS011;60547;48.502;8.996;2022-08-19T08:39:06;28.63;;;17.40;;
72524;SDS011;60547;48.502;8.996;2022-08-19T08:41:40;27.42;;;17.45;;
72524;SDS011;60547;48.502;8.996;2022-08-19T08:44:14;27.90;;;17.08;;
72524;SDS011;60547;48.502;8.996;2022-08-19T08:47:02;27.33;;;18.00;;
72524;SDS011;60547;48.502;8.996;2022-08-19T08:52:04;29.90;;;18.58;;
72524;SDS011;60547;48.502;8.996;2022-08-19T08:54:34;28.05;;;17.13;;
72524;SDS011;60547;48.502;8.996;2022-08-19T08:57:04;26.80;;;17.20;;
72524;SDS011;60547;48.502;8.996;2022-08-19T08:59:37;27.05;;;17.70;;
72524;SDS011;60547;48.502;8.996;2022-08-19T09:02:06;28.90;;;17.10;;
72524;SDS011;60547;48.502;8.996;2022-08-19T09:04:35;27.02;;;17.48;;
72524;SDS011;60547;48.502;8.996;2022-08-19T09:09:40;29.15;;;17.70;;
72524;SDS011;60547;48.502;8.996;2022-08-19T09:12:10;30.10;;;17.50;;
72524;SDS011;60547;48.502;8.996;2022-08-19T09:17:17;27.30;;;17.35;;
72524;SDS011;60547;48.502;8.996;2022-08-19T09:19:51;28.95;;;18.17;;
72524;SDS011;60547;48.502;8.996;2022-08-19T09:22:19;29.58;;;17.88;;
72524;SDS011;60547;48.502;8.996;2022-08-19T09:24:48;28.85;;;18.10;;
72524;SDS011;60547;48.502;8.996;2022-08-19T09:27:14;30.95;;;18.77;;
72524;SDS011;60547;48.502;8.996;2022-08-19T09:29:39;28.17;;;18.50;;
72524;SDS011;60547;48.502;8.996;2022-08-19T09:32:05;29.33;;;18.27;;
72524;SDS011;60547;48.502;8.996;2022-08-19T09:34:31;31.35;;;20.25;;
72524;SDS011;60547;48.502;8.996;2022-08-19T09:36:57;30.60;;;19.08;;
72524;SDS011;60547;48.502;8.996;2022-08-19T09:39:25;29.77;;;18.20;;
72524;SDS011;60547;48.502;8.996;2022-08-19T09:41:50;28.90;;;17.65;;
72524;SDS011;60547;48.502;8.996;2022-08-19T09:44:16;24.60;;;16.33;;
72524;SDS011;60547;48.502;8.996;2022-08-19T09:46:42;27.65;;;17.13;;
72524;SDS011;60547;48.502;8.996;2022-08-19T09:49:07;27.63;;;16.40;;
72524;SDS011;60547;48.502;8.996;2022-08-19T09:51:33;27.42;;;17.15;;
72524;SDS011;60547;48.502;8.996;2022-08-19T09:53:59;25.13;;;15.80;;
72524;SDS011;60547;48.502;8.996;2022-08-19T09:56:27;24.80;;;16.15;;
72524;SDS011;60547;48.502;8.996;2022-08-19T09:58:53;29.40;;;17.95;;
72524;SDS011;60547;48.502;8.996;2022-08-19T10:01:23;27.13;;;17.58;;
72524;SDS011;60547;48.502;8.996;2022-08-19T10:03:51;29.48;;;18.40;;
72524;SDS011;60547;48.502;8.996;2022-08-19T10:06:19;29.17;;;17.65;;
72524;SDS011;60547;48.502;8.996;2022-08-19T10:08:49;27.33;;;17.58;;
72524;SDS011;60547;48.502;8.996;2022-08-19T10:11:17;26.45;;;16.20;;
72524;SDS011;60547;48.502;8.996;2022-08-19T10:13:44;25.17;;;16.80;;
72524;SDS011;60547;48.502;8.996;2022-08-19T10:16:13;24.17;;;16.92;;
72524;SDS011;60547;48.502;8.996;2022-08-19T10:18:40;27.17;;;17.23;;
72524;SDS011;60547;48.502;8.996;2022-08-19T10:21:14;25.38;;;16.65;;
72524;SDS011;60547;48.502;8.996;2022-08-19T10:23:43;27.10;;;16.30;;
72524;SDS011;60547;48.502;8.996;2022-08-19T10:26:11;25.60;;;16.23;;
72524;SDS011;60547;48.502;8.996;2022-08-19T10:28:38;27.23;;;16.42;;
72524;SDS011;60547;48.502;8.996;2022-08-19T10:31:11;25.75;;;17.30;;
72524;SDS011;60547;48.502;8.996;2022-08-19T10:33:40;31.48;;;17.67;;
72524;SDS011;60547;48.502;8.996;2022-08-19T10:36:10;30.02;;;18.13;;
72524;SDS011;60547;48.502;8.996;2022-08-19T10:38:40;28.63;;;18.08;;
72524;SDS011;60547;48.502;8.996;2022-08-19T10:41:16;28.45;;;18.75;;
72524;SDS011;60547;48.502;8.996;2022-08-19T10:43:43;29.75;;;18.25;;
72524;SDS011;60547;48.502;8.996;2022-08-19T10:46:11;28.83;;;17.67;;
72524;SDS011;60547;48.502;8.996;2022-08-19T10:48:39;29.70;;;18.45;;
72524;SDS011;60547;48.502;8.996;2022-08-19T10:51:05;26.50;;;17.17;;
72524;SDS011;60547;48.502;8.996;2022-08-19T10:53:50;29.50;;;18.30;;
72524;SDS011;60547;48.502;8.996;2022-08-19T10:56:17;31.77;;;19.25;;
72524;SDS011;60547;48.502;8.996;2022-08-19T10:59:02;28.33;;;17.58;;
72524;SDS011;60547;48.502;8.996;2022-08-19T11:01:29;26.58;;;17.50;;
72524;SDS011;60547;48.502;8.996;2022-08-19T11:03:58;27.15;;;16.50;;
72524;SDS011;60547;48.502;8.996;2022-08-19T11:06:24;29.20;;;18.70;;
72524;SDS011;60547;48.502;8.996;2022-08-19T11:08:53;29.60;;;18.20;;
72524;SDS011;60547;48.502;8.996;2022-08-19T11:11:19;27.27;;;18.67;;
72524;SDS011;60547;48.502;8.996;2022-08-19T11:13:47;28.33;;;18.13;;
72524;SDS011;60547;48.502;8.996;2022-08-19T11:16:18;27.95;;;18.52;;
72524;SDS011;60547;48.502;8.996;2022-08-19T11:18:48;28.13;;;17.65;;
72524;SDS011;60547;48.502;8.996;2022-08-19T11:21:21;27.27;;;18.05;;
72524;SDS011;60547;48.502;8.996;2022-08-19T11:23:48;26.80;;;17.63;;
72524;SDS011;60547;48.502;8.996;2022-08-19T11:26:16;27.88;;;18.15;;
72524;SDS011;60547;48.502;8.996;2022-08-19T11:28:43;25.05;;;17.23;;
72524;SDS011;60547;48.502;8.996;2022-08-19T11:31:13;32.10;;;19.98;;
72524;SDS011;60547;48.502;8.996;2022-08-19T11:33:41;28.52;;;18.60;;
72524;SDS011;60547;48.502;8.996;2022-08-19T11:36:07;32.30;;;19.98;;
72524;SDS011;60547;48.502;8.996;2022-08-19T11:38:33;27.52;;;18.67;;
72524;SDS011;60547;48.502;8.996;2022-08-19T11:41:01;27.52;;;17.95;;
72524;SDS011;60547;48.502;8.996;2022-08-19T11:43:29;28.23;;;19.27;;
72524;SDS011;60547;48.502;8.996;2022-08-19T11:45:55;27.63;;;17.92;;
72524;SDS011;60547;48.502;8.996;2022-08-19T11:48:21;31.10;;;18.88;;
72524;SDS011;60547;48.502;8.996;2022-08-19T11:50:48;26.90;;;18.63;;
72524;SDS011;60547;48.502;8.996;2022-08-19T11:53:14;26.10;;;18.05;;
72524;SDS011;60547;48.502;8.996;2022-08-19T11:55:40;27.63;;;18.48;;
72524;SDS011;60547;48.502;8.996;2022-08-19T11:58:05;30.55;;;19.48;;
72524;SDS011;60547;48.502;8.996;2022-08-19T12:00:33;30.38;;;19.27;;
72524;SDS011;60547;48.502;8.996;2022-08-19T12:03:00;30.15;;;19.67;;
72524;SDS011;60547;48.502;8.996;2022-08-19T12:05:26;28.27;;;18.40;;
72524;SDS011;60547;48.502;8.996;2022-08-19T12:07:51;27.48;;;17.83;;
72524;SDS011;60547;48.502;8.996;2022-08-19T12:10:17;28.85;;;18.80;;
72524;SDS011;60547;48.502;8.996;2022-08-19T12:12:42;26.60;;;17.55;;
72524;SDS011;60547;48.502;8.996;2022-08-19T12:15:10;27.08;;;17.25;;
72524;SDS011;60547;48.502;8.996;2022-08-19T12:17:37;29.20;;;19.27;;
72524;SDS011;60547;48.502;8.996;2022-08-19T12:20:03;29.45;;;18.33;;
72524;SDS011;60547;48.502;8.996;2022-08-19T12:22:29;30.17;;;19.13;;
72524;SDS011;60547;48.502;8.996;2022-08-19T12:24:55;28.92;;;18.88;;
72524;SDS011;60547;48.502;8.996;2022-08-19T12:27:21;27.25;;;18.35;;
72524;SDS011;60547;48.502;8.996;2022-08-19T12:29:46;27.85;;;18.30;;
72524;SDS011;60547;48.502;8.996;2022-08-19T12:32:11;27.25;;;18.48;;
72524;SDS011;60547;48.502;8.996;2022-08-19T12:34:38;29.08;;;19.27;;
72524;SDS011;60547;48.502;8.996;2022-08-19T12:37:04;27.83;;;17.92;;
72524;SDS011;60547;48.502;8.996;2022-08-19T12:39:35;27.98;;;18.77;;
72524;SDS011;60547;48.502;8.996;2022-08-19T12:42:01;29.15;;;19.20;;
72524;SDS011;60547;48.502;8.996;2022-08-19T12:44:27;28.17;;;18.42;;
72524;SDS011;60547;48.502;8.996;2022-08-19T12:46:54;24.63;;;16.88;;
72524;SDS011;60547;48.502;8.996;2022-08-19T12:49:19;23.70;;;16.60;;
72524;SDS011;60547;48.502;8.996;2022-08-19T12:51:44;24.80;;;17.38;;
72524;SDS011;60547;48.502;8.996;2022-08-19T12:54:11;24.23;;;17.13;;
72524;SDS011;60547;48.502;8.996;2022-08-19T12:56:36;25.38;;;17.00;;
72524;SDS011;60547;48.502;8.996;2022-08-19T12:59:02;24.40;;;16.08;;
72524;SDS011;60547;48.502;8.996;2022-08-19T13:01:29;23.88;;;17.50;;
72524;SDS011;60547;48.502;8.996;2022-08-19T13:03:58;24.80;;;15.75;;
72524;SDS011;60547;48.502;8.996;2022-08-19T13:06:24;25.00;;;17.00;;
72524;SDS011;60547;48.502;8.996;2022-08-19T13:08:51;25.00;;;16.98;;
72524;SDS011;60547;48.502;8.996;2022-08-19T13:11:18;23.35;;;15.80;;
72524;SDS011;60547;48.502;8.996;2022-08-19T13:13:45;22.98;;;16.00;;
72524;SDS011;60547;48.502;8.996;2022-08-19T13:16:12;20.27;;;15.25;;
72524;SDS011;60547;48.502;8.996;2022-08-19T13:18:39;21.02;;;14.63;;
72524;SDS011;60547;48.502;8.996;2022-08-19T13:21:06;20.67;;;14.57;;
72524;SDS011;60547;48.502;8.996;2022-08-19T13:23:34;21.88;;;14.27;;
72524;SDS011;60547;48.502;8.996;2022-08-19T13:26:02;21.92;;;16.17;;
72524;SDS011;60547;48.502;8.996;2022-08-19T13:28:30;20.45;;;15.18;;
72524;SDS011;60547;48.502;8.996;2022-08-19T13:31:19;24.17;;;16.60;;
72524;SDS011;60547;48.502;8.996;2022-08-19T13:34:05;21.60;;;15.10;;
72524;SDS011;60547;48.502;8.996;2022-08-19T13:36:34;22.92;;;15.82;;
72524;SDS011;60547;48.502;8.996;2022-08-19T13:39:01;23.00;;;15.15;;
72524;SDS011;60547;48.502;8.996;2022-08-19T13:41:27;21.58;;;14.85;;
72524;SDS011;60547;48.502;8.996;2022-08-19T13:43:53;23.83;;;16.15;;
72524;SDS011;60547;48.502;8.996;2022-08-19T13:46:19;22.67;;;16.20;;
72524;SDS011;60547;48.502;8.996;2022-08-19T13:48:45;27.20;;;17.05;;
72524;SDS011;60547;48.502;8.996;2022-08-19T13:51:11;22.92;;;16.58;;
72524;SDS011;60547;48.502;8.996;2022-08-19T13:53:38;21.70;;;15.30;;
72524;SDS011;60547;48.502;8.996;2022-08-19T13:56:05;22.88;;;16.58;;
72524;SDS011;60547;48.502;8.996;2022-08-19T13:58:32;21.45;;;15.10;;
72524;SDS011;60547;48.502;8.996;2022-08-19T14:00:57;24.35;;;17.17;;
72524;SDS011;60547;48.502;8.996;2022-08-19T14:03:24;21.00;;;15.02;;
72524;SDS011;60547;48.502;8.996;2022-08-19T14:05:50;22.70;;;16.08;;
72524;SDS011;60547;48.502;8.996;2022-08-19T14:08:15;20.70;;;14.95;;
72524;SDS011;60547;48.502;8.996;2022-08-19T14:10:41;20.35;;;14.32;;
72524;SDS011;60547;48.502;8.996;2022-08-19T14:13:10;21.33;;;14.85;;
72524;SDS011;60547;48.502;8.996;2022-08-19T14:15:37;20.42;;;14.02;;
72524;SDS011;60547;48.502;8.996;2022-08-19T14:18:03;21.33;;;14.70;;
72524;SDS011;60547;48.502;8.996;2022-08-19T14:20:28;20.48;;;14.68;;
72524;SDS011;60547;48.502;8.996;2022-08-19T14:22:54;22.00;;;15.50;;
72524;SDS011;60547;48.502;8.996;2022-08-19T14:25:21;20.08;;;14.45;;
72524;SDS011;60547;48.502;8.996;2022-08-19T14:27:50;21.30;;;14.90;;
72524;SDS011;60547;48.502;8.996;2022-08-19T14:30:16;22.25;;;15.32;;
72524;SDS011;60547;48.502;8.996;2022-08-19T14:32:44;20.98;;;14.85;;
72524;SDS011;60547;48.502;8.996;2022-08-19T14:35:10;23.23;;;16.30;;
72524;SDS011;60547;48.502;8.996;2022-08-19T14:37:37;22.92;;;16.38;;
72524;SDS011;60547;48.502;8.996;2022-08-19T14:40:03;23.42;;;17.67;;
72524;SDS011;60547;48.502;8.996;2022-08-19T14:42:29;22.13;;;15.73;;